createdAt,value
2016-10-16T00:00:48.884Z,0
2016-10-16T00:01:48.997Z,0
2016-10-16T00:02:48.293Z,0
2016-10-16T00:03:48.061Z,0
2016-10-16T00:04:50.521Z,0
2016-10-16T00:05:50.304Z,0
2016-10-16T00:06:48.927Z,0
2016-10-16T00:07:50.518Z,0
2016-10-16T00:08:49.748Z,0
2016-10-16T00:09:49.077Z,0
2016-10-16T00:10:48.673Z,0
2016-10-16T00:11:50.574Z,0
2016-10-16T00:12:49.402Z,0
2016-10-16T00:13:47.705Z,0
2016-10-16T00:14:48.309Z,0
2016-10-16T00:15:49.050Z,0
2016-10-16T00:16:48.504Z,0
2016-10-16T00:17:49.308Z,0
2016-10-16T00:18:50.102Z,0
2016-10-16T00:19:48.080Z,0
2016-10-16T00:20:48.471Z,0
2016-10-16T00:21:49.844Z,0
2016-10-16T00:22:50.035Z,0
2016-10-16T00:23:48.481Z,0
2016-10-16T00:24:48.593Z,0
2016-10-16T00:25:48.816Z,0
2016-10-16T00:26:47.845Z,0
2016-10-16T00:27:48.392Z,0
2016-10-16T00:28:48.761Z,0
2016-10-16T00:29:48.864Z,0
2016-10-16T00:30:48.835Z,0
2016-10-16T00:31:50.073Z,0
2016-10-16T00:32:49.403Z,0
2016-10-16T00:33:49.320Z,0
2016-10-16T00:34:49.364Z,0
2016-10-16T00:35:49.013Z,0
2016-10-16T00:36:49.266Z,0
2016-10-16T00:37:49.015Z,0
2016-10-16T00:38:48.884Z,0
2016-10-16T00:39:49.361Z,0
2016-10-16T00:40:50.128Z,0
2016-10-16T00:41:49.359Z,0
2016-10-16T00:42:50.313Z,0
2016-10-16T00:43:50.487Z,0
2016-10-16T00:44:49.225Z,0
2016-10-16T00:45:49.193Z,0
2016-10-16T00:46:48.922Z,0
2016-10-16T00:47:50.079Z,0
2016-10-16T00:48:49.317Z,0
2016-10-16T00:49:48.695Z,0
2016-10-16T00:50:49.078Z,0
2016-10-16T00:51:48.890Z,0
2016-10-16T00:52:48.612Z,0
2016-10-16T00:53:49.342Z,0
2016-10-16T00:54:49.197Z,0
2016-10-16T00:55:49.101Z,0
2016-10-16T00:56:49.086Z,0
2016-10-16T00:57:49.143Z,0
2016-10-16T00:58:49.326Z,0
2016-10-16T00:59:49.295Z,0
2016-10-16T01:00:50.547Z,0
2016-10-16T01:01:49.060Z,0
2016-10-16T01:02:49.255Z,0
2016-10-16T01:03:49.062Z,0
2016-10-16T01:04:50.250Z,0
2016-10-16T01:05:50.562Z,0
2016-10-16T01:06:50.415Z,0
2016-10-16T01:07:49.237Z,0
2016-10-16T01:08:49.505Z,0
2016-10-16T01:09:49.411Z,0
2016-10-16T01:10:50.024Z,0
2016-10-16T01:11:49.484Z,0
2016-10-16T01:12:49.364Z,0
2016-10-16T01:13:50.311Z,0
2016-10-16T01:14:50.582Z,0
2016-10-16T01:15:49.993Z,0
2016-10-16T01:16:50.457Z,0
2016-10-16T01:17:50.155Z,0
2016-10-16T01:18:48.930Z,0
2016-10-16T01:19:50.083Z,0
2016-10-16T01:20:48.937Z,0
2016-10-16T01:21:50.523Z,0
2016-10-16T01:22:50.598Z,0
2016-10-16T01:23:50.043Z,0
2016-10-16T01:24:50.000Z,0
2016-10-16T01:25:50.884Z,0
2016-10-16T01:26:50.186Z,0
2016-10-16T01:27:50.471Z,0
2016-10-16T01:28:51.204Z,0
2016-10-16T01:29:50.483Z,0
2016-10-16T01:30:50.403Z,0
2016-10-16T01:31:50.430Z,0
2016-10-16T01:32:49.315Z,0
2016-10-16T01:33:49.043Z,0
2016-10-16T01:34:49.995Z,0
2016-10-16T01:35:50.274Z,0
2016-10-16T01:36:50.798Z,0
2016-10-16T01:37:50.059Z,0
2016-10-16T01:38:49.472Z,0
2016-10-16T01:39:50.057Z,0
2016-10-16T01:40:51.265Z,0
2016-10-16T01:41:51.216Z,0
2016-10-16T01:42:49.598Z,0
2016-10-16T01:43:50.521Z,0
2016-10-16T01:44:50.103Z,0
2016-10-16T01:45:49.739Z,0
2016-10-16T01:46:49.157Z,0
2016-10-16T01:47:49.912Z,0
2016-10-16T01:48:50.499Z,0
2016-10-16T01:49:51.993Z,0
2016-10-16T01:50:49.396Z,0
2016-10-16T01:51:50.155Z,0
2016-10-16T01:52:50.530Z,0
2016-10-16T01:53:49.789Z,0
2016-10-16T01:54:49.739Z,0
2016-10-16T01:55:50.010Z,0
2016-10-16T01:56:50.190Z,0
2016-10-16T01:57:50.267Z,0
2016-10-16T01:58:51.237Z,0
2016-10-16T01:59:51.136Z,0
2016-10-16T02:00:50.525Z,0
2016-10-16T02:01:50.600Z,0
2016-10-16T02:02:50.160Z,0
2016-10-16T02:03:50.015Z,0
2016-10-16T02:04:51.172Z,0
2016-10-16T02:05:50.463Z,0
2016-10-16T02:06:50.562Z,0
2016-10-16T02:07:51.115Z,0
2016-10-16T02:08:50.751Z,0
2016-10-16T02:09:50.590Z,0
2016-10-16T02:10:50.581Z,0
2016-10-16T02:11:50.735Z,0
2016-10-16T02:12:51.103Z,0
2016-10-16T02:13:50.571Z,0
2016-10-16T02:14:50.679Z,0
2016-10-16T02:15:50.407Z,0
2016-10-16T02:16:50.796Z,0
2016-10-16T02:17:50.296Z,0
2016-10-16T02:18:50.525Z,0
2016-10-16T02:19:52.001Z,0
2016-10-16T02:20:51.357Z,0
2016-10-16T02:21:50.483Z,0
2016-10-16T02:22:51.131Z,0
2016-10-16T02:23:50.820Z,0
2016-10-16T02:24:51.230Z,0
2016-10-16T02:25:50.670Z,0
2016-10-16T02:26:50.516Z,0
2016-10-16T02:27:50.223Z,0
2016-10-16T02:28:50.613Z,0
2016-10-16T02:29:50.896Z,0
2016-10-16T02:30:50.777Z,0
2016-10-16T02:31:50.908Z,0
2016-10-16T02:32:51.711Z,0
2016-10-16T02:33:50.534Z,0
2016-10-16T02:34:51.110Z,0
2016-10-16T02:35:50.948Z,0
2016-10-16T02:36:51.692Z,0
2016-10-16T02:37:51.200Z,0
2016-10-16T02:38:50.055Z,0
2016-10-16T02:39:52.343Z,0
2016-10-16T02:40:51.371Z,0
2016-10-16T02:41:51.195Z,0
2016-10-16T02:42:51.514Z,0
2016-10-16T02:43:51.580Z,0
2016-10-16T02:44:51.112Z,0
2016-10-16T02:45:51.761Z,0
2016-10-16T02:46:51.399Z,0
2016-10-16T02:47:51.552Z,0
2016-10-16T02:48:50.761Z,0
2016-10-16T02:49:51.186Z,0
2016-10-16T02:50:51.130Z,0
2016-10-16T02:51:54.115Z,0
2016-10-16T02:52:51.756Z,0
2016-10-16T02:53:50.454Z,0
2016-10-16T02:54:51.641Z,0
2016-10-16T02:55:50.842Z,0
2016-10-16T02:56:51.058Z,0
2016-10-16T02:57:51.951Z,0
2016-10-16T02:58:51.606Z,0
2016-10-16T02:59:52.554Z,0
2016-10-16T03:00:51.360Z,0
2016-10-16T03:01:52.598Z,0
2016-10-16T03:02:52.248Z,0
2016-10-16T03:03:51.883Z,0
2016-10-16T03:04:52.633Z,0
2016-10-16T03:05:51.716Z,0
2016-10-16T03:06:51.795Z,0
2016-10-16T03:07:51.345Z,0
2016-10-16T03:08:51.739Z,0
2016-10-16T03:09:51.891Z,0
2016-10-16T03:10:51.479Z,0
2016-10-16T03:11:53.130Z,0
2016-10-16T03:12:51.624Z,0
2016-10-16T03:13:51.210Z,0
2016-10-16T03:14:51.262Z,0
2016-10-16T03:15:52.508Z,0
2016-10-16T03:16:51.554Z,0
2016-10-16T03:17:52.822Z,0
2016-10-16T03:18:53.068Z,0
2016-10-16T03:19:51.419Z,0
2016-10-16T03:20:52.900Z,0
2016-10-16T03:21:52.762Z,0
2016-10-16T03:22:52.823Z,0
2016-10-16T03:23:51.735Z,0
2016-10-16T03:24:51.403Z,0
2016-10-16T03:25:51.484Z,0
2016-10-16T03:26:53.245Z,0
2016-10-16T03:27:51.375Z,0
2016-10-16T03:28:51.511Z,0
2016-10-16T03:29:51.903Z,0
2016-10-16T03:30:51.190Z,0
2016-10-16T03:31:51.669Z,0
2016-10-16T03:32:52.417Z,0
2016-10-16T03:33:52.521Z,0
2016-10-16T03:34:52.100Z,0
2016-10-16T03:35:51.627Z,0
2016-10-16T03:36:52.822Z,0
2016-10-16T03:37:52.712Z,0
2016-10-16T03:38:53.050Z,0
2016-10-16T03:39:53.105Z,0
2016-10-16T03:40:52.607Z,0
2016-10-16T03:41:51.998Z,0
2016-10-16T03:42:52.052Z,0
2016-10-16T03:43:51.717Z,0
2016-10-16T03:44:54.944Z,0
2016-10-16T03:45:53.201Z,0
2016-10-16T03:46:52.501Z,0
2016-10-16T03:47:53.396Z,0
2016-10-16T03:48:53.252Z,0
2016-10-16T03:49:52.135Z,0
2016-10-16T03:50:53.632Z,0
2016-10-16T03:51:53.099Z,0
2016-10-16T03:52:51.559Z,0
2016-10-16T03:53:52.206Z,0
2016-10-16T03:54:51.771Z,0
2016-10-16T03:55:52.205Z,0
2016-10-16T03:56:52.058Z,0
2016-10-16T03:57:51.861Z,0
2016-10-16T03:58:52.394Z,0
2016-10-16T03:59:52.295Z,0
2016-10-16T04:00:52.004Z,0
2016-10-16T04:01:54.405Z,0
2016-10-16T04:02:52.369Z,0
2016-10-16T04:03:51.905Z,0
2016-10-16T04:04:53.798Z,0
2016-10-16T04:05:52.920Z,0
2016-10-16T04:06:53.029Z,0
2016-10-16T04:07:52.807Z,0
2016-10-16T04:08:52.238Z,0
2016-10-16T04:09:52.928Z,0
2016-10-16T04:10:53.336Z,0
2016-10-16T04:11:53.565Z,0
2016-10-16T04:12:52.411Z,0
2016-10-16T04:13:52.385Z,0
2016-10-16T04:14:53.195Z,0
2016-10-16T04:15:54.012Z,0
2016-10-16T04:16:54.486Z,0
2016-10-16T04:17:52.714Z,0
2016-10-16T04:18:52.947Z,0
2016-10-16T04:19:52.772Z,0
2016-10-16T04:20:52.920Z,0
2016-10-16T04:21:52.582Z,0
2016-10-16T04:22:53.360Z,0
2016-10-16T04:23:53.579Z,0
2016-10-16T04:24:53.916Z,0
2016-10-16T04:25:54.055Z,0
2016-10-16T04:26:53.630Z,0
2016-10-16T04:27:52.742Z,0
2016-10-16T04:28:53.226Z,0
2016-10-16T04:29:53.007Z,0
2016-10-16T04:30:52.899Z,0
2016-10-16T04:31:52.639Z,0
2016-10-16T04:32:53.806Z,0
2016-10-16T04:33:53.717Z,0
2016-10-16T04:34:53.960Z,0
2016-10-16T04:35:52.949Z,0
2016-10-16T04:36:53.606Z,0
2016-10-16T04:37:53.643Z,0
2016-10-16T04:38:53.466Z,0
2016-10-16T04:39:53.609Z,0
2016-10-16T04:40:56.610Z,0
2016-10-16T04:41:53.565Z,0
2016-10-16T04:42:53.176Z,0
2016-10-16T04:43:54.061Z,0
2016-10-16T04:44:53.726Z,0
2016-10-16T04:45:54.134Z,0
2016-10-16T04:46:53.356Z,0
2016-10-16T04:47:52.935Z,0
2016-10-16T04:48:53.003Z,0
2016-10-16T04:49:53.004Z,0
2016-10-16T04:50:53.027Z,0
2016-10-16T04:51:53.651Z,0
2016-10-16T04:52:53.823Z,0
2016-10-16T04:55:56.959Z,0
2016-10-16T04:58:00.621Z,0
2016-10-16T04:58:55.280Z,0
2016-10-16T04:59:54.461Z,0
2016-10-16T05:00:51.834Z,0
2016-10-16T05:01:54.514Z,0
2016-10-16T05:02:53.659Z,0
2016-10-16T05:03:54.958Z,0
2016-10-16T05:04:54.978Z,0
2016-10-16T05:05:52.825Z,0
2016-10-16T05:06:52.802Z,0
2016-10-16T05:07:53.418Z,0
2016-10-16T05:08:54.316Z,0
2016-10-16T05:09:54.948Z,0
2016-10-16T05:10:53.799Z,0
2016-10-16T05:11:54.377Z,0
2016-10-16T05:12:54.374Z,0
2016-10-16T05:13:53.427Z,0
2016-10-16T05:14:53.786Z,0
2016-10-16T05:15:54.432Z,0
2016-10-16T05:16:53.158Z,0
2016-10-16T05:17:54.624Z,0
2016-10-16T05:18:54.549Z,0
2016-10-16T05:19:54.847Z,4
2016-10-16T05:20:55.264Z,4
2016-10-16T05:21:54.132Z,4
2016-10-16T05:22:53.373Z,4
2016-10-16T05:23:54.151Z,4
2016-10-16T05:24:53.848Z,8
2016-10-16T05:25:53.872Z,4
2016-10-16T05:26:54.372Z,8
2016-10-16T05:27:54.267Z,8
2016-10-16T05:28:53.623Z,12
2016-10-16T05:29:53.696Z,12
2016-10-16T05:30:53.456Z,16
2016-10-16T05:31:53.036Z,16
2016-10-16T05:32:55.489Z,20
2016-10-16T05:33:55.301Z,24
2016-10-16T05:34:54.193Z,28
2016-10-16T05:35:54.028Z,32
2016-10-16T05:36:53.314Z,36
2016-10-16T05:37:54.006Z,48
2016-10-16T05:38:55.201Z,52
2016-10-16T05:39:53.592Z,60
2016-10-16T05:40:55.525Z,68
2016-10-16T05:41:55.091Z,80
2016-10-16T05:42:54.479Z,88
2016-10-16T05:43:55.000Z,104
2016-10-16T05:44:53.876Z,120
2016-10-16T05:45:55.219Z,140
2016-10-16T05:46:53.683Z,152
2016-10-16T05:47:56.214Z,180
2016-10-16T05:48:54.424Z,196
2016-10-16T05:49:54.743Z,212
2016-10-16T05:50:54.970Z,224
2016-10-16T05:51:54.341Z,252
2016-10-16T05:52:54.935Z,276
2016-10-16T05:53:54.559Z,296
2016-10-16T05:54:56.003Z,316
2016-10-16T05:55:54.904Z,348
2016-10-16T05:56:54.282Z,372
2016-10-16T05:57:54.769Z,392
2016-10-16T05:58:55.185Z,412
2016-10-16T05:59:54.809Z,428
2016-10-16T06:00:53.690Z,456
2016-10-16T06:01:54.406Z,496
2016-10-16T06:02:54.943Z,520
2016-10-16T06:03:55.063Z,532
2016-10-16T06:04:54.819Z,556
2016-10-16T06:05:53.852Z,576
2016-10-16T06:06:54.971Z,604
2016-10-16T06:07:54.776Z,620
2016-10-16T06:08:55.346Z,648
2016-10-16T06:09:56.212Z,676
2016-10-16T06:10:54.992Z,716
2016-10-16T06:11:54.890Z,780
2016-10-16T06:12:55.240Z,860
2016-10-16T06:13:56.606Z,944
2016-10-16T06:14:54.428Z,988
2016-10-16T06:15:54.658Z,1028
2016-10-16T06:16:55.939Z,1076
2016-10-16T06:17:54.718Z,1136
2016-10-16T06:18:54.167Z,1200
2016-10-16T06:19:54.913Z,1248
2016-10-16T06:20:55.590Z,1312
2016-10-16T06:21:54.892Z,1380
2016-10-16T06:22:55.572Z,1460
2016-10-16T06:23:54.820Z,1504
2016-10-16T06:24:55.555Z,1600
2016-10-16T06:25:56.279Z,1632
2016-10-16T06:26:56.020Z,1696
2016-10-16T06:27:55.973Z,1716
2016-10-16T06:28:55.228Z,1684
2016-10-16T06:29:56.321Z,1804
2016-10-16T06:30:55.003Z,1792
2016-10-16T06:31:55.388Z,1832
2016-10-16T06:32:55.546Z,1908
2016-10-16T06:33:55.383Z,1920
2016-10-16T06:34:54.820Z,2012
2016-10-16T06:35:55.146Z,2000
2016-10-16T06:36:55.189Z,1948
2016-10-16T06:37:55.462Z,1984
2016-10-16T06:38:55.087Z,2076
2016-10-16T06:39:54.785Z,2128
2016-10-16T06:40:54.928Z,2148
2016-10-16T06:41:55.540Z,2204
2016-10-16T06:42:55.385Z,2332
2016-10-16T06:43:55.820Z,2296
2016-10-16T06:44:56.546Z,2496
2016-10-16T06:45:55.416Z,2536
2016-10-16T06:46:56.024Z,2636
2016-10-16T06:47:55.626Z,2736
2016-10-16T06:48:56.405Z,2816
2016-10-16T06:49:55.440Z,2884
2016-10-16T06:50:57.481Z,3024
2016-10-16T06:51:56.346Z,3112
2016-10-16T06:52:55.600Z,3164
2016-10-16T06:53:55.076Z,3256
2016-10-16T06:54:55.171Z,3516
2016-10-16T06:55:55.401Z,3616
2016-10-16T06:56:53.842Z,3864
2016-10-16T06:57:54.066Z,4176
2016-10-16T06:58:54.855Z,4112
2016-10-16T06:59:54.250Z,4324
2016-10-16T07:00:55.285Z,4456
2016-10-16T07:01:55.252Z,4528
2016-10-16T07:02:55.477Z,4636
2016-10-16T07:03:55.794Z,4604
2016-10-16T07:04:55.276Z,4696
2016-10-16T07:05:54.824Z,4812
2016-10-16T07:06:55.034Z,4672
2016-10-16T07:07:55.027Z,4864
2016-10-16T07:08:56.065Z,5028
2016-10-16T07:09:57.002Z,5220
2016-10-16T07:10:58.140Z,5728
2016-10-16T07:12:01.023Z,5704
2016-10-16T07:12:55.918Z,5584
2016-10-16T07:13:56.032Z,5888
2016-10-16T07:14:56.475Z,6072
2016-10-16T07:15:56.358Z,6000
2016-10-16T07:16:55.259Z,5964
2016-10-16T07:17:55.704Z,6052
2016-10-16T07:18:56.511Z,6476
2016-10-16T07:19:55.395Z,6464
2016-10-16T07:20:55.658Z,6620
2016-10-16T07:21:56.003Z,6356
2016-10-16T07:22:55.000Z,6504
2016-10-16T07:23:56.773Z,6220
2016-10-16T07:24:56.753Z,6584
2016-10-16T07:25:56.574Z,6408
2016-10-16T07:26:57.195Z,6616
2016-10-16T07:27:56.181Z,6908
2016-10-16T07:28:56.871Z,6956
2016-10-16T07:29:56.408Z,7176
2016-10-16T07:30:56.595Z,7516
2016-10-16T07:31:57.248Z,8196
2016-10-16T07:32:56.289Z,8280
2016-10-16T07:33:55.905Z,8232
2016-10-16T07:34:55.683Z,7940
2016-10-16T07:35:56.290Z,7724
2016-10-16T07:36:57.306Z,7596
2016-10-16T07:37:56.216Z,8376
2016-10-16T07:38:57.199Z,8752
2016-10-16T07:39:56.966Z,8524
2016-10-16T07:40:56.814Z,8772
2016-10-16T07:41:56.160Z,8720
2016-10-16T07:42:55.659Z,9096
2016-10-16T07:43:57.949Z,9644
2016-10-16T07:44:56.606Z,8988
2016-10-16T07:45:56.293Z,8524
2016-10-16T07:46:56.599Z,8760
2016-10-16T07:47:56.331Z,8604
2016-10-16T07:48:56.892Z,9084
2016-10-16T07:49:56.410Z,9320
2016-10-16T07:50:55.360Z,8864
2016-10-16T07:51:56.287Z,8648
2016-10-16T07:52:56.275Z,8312
2016-10-16T07:53:56.798Z,8296
2016-10-16T07:54:54.385Z,8068
2016-10-16T07:55:57.540Z,8052
2016-10-16T07:56:55.991Z,8556
2016-10-16T07:57:57.376Z,9024
2016-10-16T07:58:56.612Z,10200
2016-10-16T07:59:55.730Z,10332
2016-10-16T08:00:56.520Z,10408
2016-10-16T08:01:56.889Z,10636
2016-10-16T08:02:56.640Z,10940
2016-10-16T08:03:55.853Z,10352
2016-10-16T08:04:56.809Z,10584
2016-10-16T08:05:57.236Z,10336
2016-10-16T08:06:57.013Z,10848
2016-10-16T08:07:56.695Z,11376
2016-10-16T08:08:56.344Z,10712
2016-10-16T08:09:56.067Z,10564
2016-10-16T08:10:55.959Z,11212
2016-10-16T08:11:57.836Z,11192
2016-10-16T08:12:56.153Z,9688
2016-10-16T08:13:57.708Z,9760
2016-10-16T08:14:56.717Z,9664
2016-10-16T08:15:57.824Z,10404
2016-10-16T08:16:57.908Z,11688
2016-10-16T08:17:57.168Z,11600
2016-10-16T08:18:56.897Z,11816
2016-10-16T08:19:57.137Z,10516
2016-10-16T08:20:56.535Z,9120
2016-10-16T08:21:57.585Z,9348
2016-10-16T08:22:56.526Z,9584
2016-10-16T08:23:56.713Z,9588
2016-10-16T08:24:58.197Z,10628
2016-10-16T08:25:56.591Z,10772
2016-10-16T08:26:56.877Z,10436
2016-10-16T08:27:57.382Z,10728
2016-10-16T08:28:55.758Z,12416
2016-10-16T08:29:57.113Z,12824
2016-10-16T08:30:57.165Z,13824
2016-10-16T08:31:56.154Z,12028
2016-10-16T08:32:58.130Z,11516
2016-10-16T08:33:56.347Z,13240
2016-10-16T08:34:57.437Z,13208
2016-10-16T08:35:56.761Z,12952
2016-10-16T08:36:57.268Z,13292
2016-10-16T08:37:56.806Z,13468
2016-10-16T08:38:57.559Z,11888
2016-10-16T08:39:56.478Z,11300
2016-10-16T08:40:57.373Z,10592
2016-10-16T08:41:57.628Z,10564
2016-10-16T08:42:56.850Z,10608
2016-10-16T08:43:57.287Z,10424
2016-10-16T08:44:57.219Z,10560
2016-10-16T08:45:59.089Z,10908
2016-10-16T08:46:57.263Z,10636
2016-10-16T08:47:57.925Z,11792
2016-10-16T08:48:57.929Z,11008
2016-10-16T08:49:57.981Z,10728
2016-10-16T08:50:59.136Z,11860
2016-10-16T08:51:58.118Z,12248
2016-10-16T08:52:56.778Z,12772
2016-10-16T08:53:58.208Z,12940
2016-10-16T08:54:57.748Z,13652
2016-10-16T08:55:57.261Z,11116
2016-10-16T08:56:57.880Z,10360
2016-10-16T08:57:58.298Z,10776
2016-10-16T08:58:57.776Z,10972
2016-10-16T08:59:59.326Z,11208
2016-10-16T09:00:57.742Z,10936
2016-10-16T09:01:57.262Z,11152
2016-10-16T09:02:57.427Z,11520
2016-10-16T09:03:57.991Z,11808
2016-10-16T09:04:58.006Z,12756
2016-10-16T09:05:57.775Z,13052
2016-10-16T09:06:58.321Z,14504
2016-10-16T09:07:57.129Z,14380
2016-10-16T09:08:58.941Z,14976
2016-10-16T09:09:58.021Z,14544
2016-10-16T09:10:58.224Z,15220
2016-10-16T09:11:58.793Z,13472
2016-10-16T09:12:58.125Z,13032
2016-10-16T09:13:57.483Z,12620
2016-10-16T09:14:57.645Z,14124
2016-10-16T09:15:58.830Z,14296
2016-10-16T09:16:58.245Z,14020
2016-10-16T09:17:58.734Z,13968
2016-10-16T09:18:58.273Z,14536
2016-10-16T09:19:58.030Z,14692
2016-10-16T09:20:57.612Z,13504
2016-10-16T09:22:00.283Z,13620
2016-10-16T09:22:59.064Z,12188
2016-10-16T09:23:57.494Z,12412
2016-10-16T09:24:58.761Z,12944
2016-10-16T09:25:59.911Z,14840
2016-10-16T09:26:57.608Z,15668
2016-10-16T09:27:59.046Z,16896
2016-10-16T09:28:58.823Z,16768
2016-10-16T09:29:58.117Z,15064
2016-10-16T09:30:59.143Z,15084
2016-10-16T09:31:57.632Z,16928
2016-10-16T09:32:58.761Z,15716
2016-10-16T09:33:58.095Z,13924
2016-10-16T09:34:59.244Z,13600
2016-10-16T09:36:00.837Z,14748
2016-10-16T09:36:58.936Z,15068
2016-10-16T09:37:57.568Z,15904
2016-10-16T09:38:58.146Z,17312
2016-10-16T09:39:57.835Z,18208
2016-10-16T09:40:57.763Z,18688
2016-10-16T09:41:58.411Z,20928
2016-10-16T09:42:57.706Z,20768
2016-10-16T09:43:58.708Z,24224
2016-10-16T09:44:58.753Z,24512
2016-10-16T09:45:58.727Z,23040
2016-10-16T09:46:58.686Z,20704
2016-10-16T09:47:59.370Z,22304
2016-10-16T09:48:57.761Z,22080
2016-10-16T09:49:58.323Z,19168
2016-10-16T09:50:59.185Z,18560
2016-10-16T09:51:57.857Z,20576
2016-10-16T09:52:57.634Z,22432
2016-10-16T09:53:58.008Z,17728
2016-10-16T09:54:58.399Z,15672
2016-10-16T09:55:58.148Z,15112
2016-10-16T09:56:59.176Z,15068
2016-10-16T09:57:59.101Z,17056
2016-10-16T09:58:58.706Z,17312
2016-10-16T09:59:58.284Z,18240
2016-10-16T10:00:58.102Z,16768
2016-10-16T10:01:59.141Z,14744
2016-10-16T10:02:58.530Z,16800
2016-10-16T10:03:57.657Z,16572
2016-10-16T10:04:58.861Z,17376
2016-10-16T10:06:00.443Z,18144
2016-10-16T10:06:59.262Z,17408
2016-10-16T10:07:58.837Z,15104
2016-10-16T10:08:59.141Z,14376
2016-10-16T10:10:00.114Z,14228
2016-10-16T10:10:59.165Z,13608
2016-10-16T10:11:59.177Z,12868
2016-10-16T10:12:59.245Z,12640
2016-10-16T10:13:59.066Z,15348
2016-10-16T10:14:58.232Z,12880
2016-10-16T10:15:59.250Z,11520
2016-10-16T10:17:00.179Z,10348
2016-10-16T10:17:58.156Z,9244
2016-10-16T10:18:59.857Z,9120
2016-10-16T10:19:58.117Z,9080
2016-10-16T10:20:58.936Z,9004
2016-10-16T10:21:58.311Z,9008
2016-10-16T10:23:00.555Z,8992
2016-10-16T10:24:00.731Z,8944
2016-10-16T10:24:59.480Z,8944
2016-10-16T10:25:59.490Z,8860
2016-10-16T10:27:00.120Z,8936
2016-10-16T10:28:00.493Z,8904
2016-10-16T10:29:00.293Z,8800
2016-10-16T10:30:00.069Z,8768
2016-10-16T10:30:58.580Z,8756
2016-10-16T10:31:59.026Z,8744
2016-10-16T10:32:59.911Z,8744
2016-10-16T10:34:00.602Z,8756
2016-10-16T10:34:59.043Z,8748
2016-10-16T10:36:00.401Z,8736
2016-10-16T10:37:00.219Z,8740
2016-10-16T10:37:59.603Z,8724
2016-10-16T10:38:58.907Z,8684
2016-10-16T10:40:00.387Z,8652
2016-10-16T10:40:59.987Z,8668
2016-10-16T10:41:58.896Z,8676
2016-10-16T10:43:00.112Z,8656
2016-10-16T10:43:59.651Z,8644
2016-10-16T10:44:58.723Z,8640
2016-10-16T10:45:59.149Z,8620
2016-10-16T10:47:01.210Z,8604
2016-10-16T10:47:59.094Z,8568
2016-10-16T10:48:58.863Z,8560
2016-10-16T10:49:59.364Z,8572
2016-10-16T10:50:59.410Z,8548
2016-10-16T10:51:59.170Z,8512
2016-10-16T10:52:59.526Z,8488
2016-10-16T10:54:00.421Z,8444
2016-10-16T10:55:00.330Z,8452
2016-10-16T10:55:59.829Z,8436
2016-10-16T10:57:00.376Z,8408
2016-10-16T10:57:59.318Z,8408
2016-10-16T10:59:00.312Z,8408
2016-10-16T11:00:00.529Z,8400
2016-10-16T11:01:00.129Z,8384
2016-10-16T11:02:00.757Z,8376
2016-10-16T11:02:59.486Z,8352
2016-10-16T11:04:00.282Z,8340
2016-10-16T11:04:59.881Z,8328
2016-10-16T11:05:59.723Z,8312
2016-10-16T11:07:00.647Z,8316
2016-10-16T11:08:00.178Z,8304
2016-10-16T11:09:00.925Z,8300
2016-10-16T11:10:01.017Z,8280
2016-10-16T11:11:00.202Z,8284
2016-10-16T11:12:00.504Z,8264
2016-10-16T11:13:00.346Z,8260
2016-10-16T11:14:01.095Z,8252
2016-10-16T11:14:59.933Z,8228
2016-10-16T11:16:00.021Z,8208
2016-10-16T11:17:00.491Z,8216
2016-10-16T11:18:00.078Z,7928
2016-10-16T11:19:00.589Z,7896
2016-10-16T11:20:00.391Z,8116
2016-10-16T11:21:00.338Z,8132
2016-10-16T11:22:00.870Z,7916
2016-10-16T11:23:01.332Z,7600
2016-10-16T11:24:01.881Z,7688
2016-10-16T11:25:00.423Z,7820
2016-10-16T11:26:00.090Z,7752
2016-10-16T11:27:00.755Z,7908
2016-10-16T11:28:01.450Z,8052
2016-10-16T11:29:00.075Z,8068
2016-10-16T11:30:00.448Z,8100
2016-10-16T11:31:00.619Z,8112
2016-10-16T11:32:00.740Z,8124
2016-10-16T11:33:00.753Z,8128
2016-10-16T11:34:01.138Z,8132
2016-10-16T11:35:00.503Z,8068
2016-10-16T11:36:00.563Z,8000
2016-10-16T11:37:01.353Z,8060
2016-10-16T11:38:01.550Z,8080
2016-10-16T11:39:02.169Z,8060
2016-10-16T11:40:00.354Z,8072
2016-10-16T11:41:02.188Z,8056
2016-10-16T11:42:00.429Z,8036
2016-10-16T11:43:00.810Z,7964
2016-10-16T11:44:01.257Z,7996
2016-10-16T11:45:02.915Z,7996
2016-10-16T11:46:00.862Z,8020
2016-10-16T11:47:01.796Z,8024
2016-10-16T11:48:01.241Z,8028
2016-10-16T11:49:00.771Z,8012
2016-10-16T11:50:01.211Z,8012
2016-10-16T11:51:00.194Z,8056
2016-10-16T11:52:00.857Z,8052
2016-10-16T11:53:01.607Z,8100
2016-10-16T11:54:00.966Z,8052
2016-10-16T11:55:01.599Z,8048
2016-10-16T11:56:01.603Z,8088
2016-10-16T11:57:00.372Z,8088
2016-10-16T11:58:01.173Z,8104
2016-10-16T11:59:01.408Z,8072
2016-10-16T12:00:01.316Z,8020
2016-10-16T12:01:02.627Z,8008
2016-10-16T12:02:02.881Z,7996
2016-10-16T12:03:01.629Z,8056
2016-10-16T12:04:01.004Z,8036
2016-10-16T12:05:01.789Z,8040
2016-10-16T12:06:00.983Z,8080
2016-10-16T12:07:02.795Z,8032
2016-10-16T12:08:01.391Z,8012
2016-10-16T12:09:01.789Z,7968
2016-10-16T12:10:02.992Z,7996
2016-10-16T12:11:02.122Z,8000
2016-10-16T12:12:00.942Z,7936
2016-10-16T12:13:01.714Z,7916
2016-10-16T12:14:02.225Z,7836
2016-10-16T12:15:02.487Z,7868
2016-10-16T12:16:01.791Z,7896
2016-10-16T12:17:01.459Z,7864
2016-10-16T12:18:02.367Z,7896
2016-10-16T12:19:02.639Z,7892
2016-10-16T12:20:02.115Z,7868
2016-10-16T12:21:01.423Z,7828
2016-10-16T12:22:01.428Z,7852
2016-10-16T12:23:02.432Z,7864
2016-10-16T12:24:01.594Z,7812
2016-10-16T12:25:01.256Z,7928
2016-10-16T12:26:02.711Z,7936
2016-10-16T12:27:02.830Z,7900
2016-10-16T12:28:02.378Z,7868
2016-10-16T12:29:02.862Z,7856
2016-10-16T12:30:01.906Z,7876
2016-10-16T12:31:01.784Z,7856
2016-10-16T12:32:02.826Z,7856
2016-10-16T12:33:02.619Z,7840
2016-10-16T12:34:03.545Z,7796
2016-10-16T12:35:03.753Z,7760
2016-10-16T12:36:03.329Z,7720
2016-10-16T12:37:03.107Z,7756
2016-10-16T12:38:03.224Z,7772
2016-10-16T12:39:02.592Z,7700
2016-10-16T12:40:04.249Z,7696
2016-10-16T12:41:02.674Z,7628
2016-10-16T12:42:02.092Z,7676
2016-10-16T12:43:03.447Z,7692
2016-10-16T12:44:03.289Z,7724
2016-10-16T12:45:03.495Z,7704
2016-10-16T12:46:03.368Z,7640
2016-10-16T12:47:03.260Z,7604
2016-10-16T12:48:03.639Z,7608
2016-10-16T12:49:03.618Z,7540
2016-10-16T12:50:03.058Z,7444
2016-10-16T12:51:03.316Z,7440
2016-10-16T12:52:03.313Z,7436
2016-10-16T12:53:02.928Z,7420
2016-10-16T12:54:02.707Z,7416
2016-10-16T12:55:03.780Z,7364
2016-10-16T12:56:02.711Z,7412
2016-10-16T12:57:05.087Z,7376
2016-10-16T12:58:03.686Z,7372
2016-10-16T12:59:02.514Z,7240
2016-10-16T13:00:02.682Z,7304
2016-10-16T13:01:02.873Z,7284
2016-10-16T13:02:02.809Z,7240
2016-10-16T13:03:03.951Z,7200
2016-10-16T13:04:02.547Z,7180
2016-10-16T13:05:03.357Z,7196
2016-10-16T13:06:04.245Z,7172
2016-10-16T13:07:03.196Z,7164
2016-10-16T13:08:04.326Z,7116
2016-10-16T13:09:03.817Z,7108
2016-10-16T13:10:04.139Z,7056
2016-10-16T13:11:03.515Z,6980
2016-10-16T13:12:03.589Z,6936
2016-10-16T13:13:03.293Z,6924
2016-10-16T13:14:03.628Z,6904
2016-10-16T13:15:03.060Z,6936
2016-10-16T13:16:03.182Z,6856
2016-10-16T13:17:03.126Z,6808
2016-10-16T13:18:04.017Z,6800
2016-10-16T13:19:03.479Z,6740
2016-10-16T13:20:03.631Z,6740
2016-10-16T13:21:03.470Z,6740
2016-10-16T13:22:03.528Z,6720
2016-10-16T13:23:03.232Z,6676
2016-10-16T13:24:03.450Z,6644
2016-10-16T13:25:03.374Z,6556
2016-10-16T13:26:03.728Z,6496
2016-10-16T13:27:05.239Z,6448
2016-10-16T13:28:03.988Z,6428
2016-10-16T13:29:04.655Z,6420
2016-10-16T13:30:03.318Z,6404
2016-10-16T13:31:03.489Z,6392
2016-10-16T13:32:04.321Z,6332
2016-10-16T13:33:03.992Z,6316
2016-10-16T13:34:03.395Z,6284
2016-10-16T13:35:04.309Z,6204
2016-10-16T13:36:03.723Z,6200
2016-10-16T13:37:04.516Z,6152
2016-10-16T13:38:02.913Z,6124
2016-10-16T13:39:05.267Z,6100
2016-10-16T13:40:05.052Z,6088
2016-10-16T13:41:04.399Z,6072
2016-10-16T13:42:04.914Z,6028
2016-10-16T13:43:04.361Z,5992
2016-10-16T13:44:04.362Z,5928
2016-10-16T13:45:06.039Z,5868
2016-10-16T13:46:04.390Z,5832
2016-10-16T13:47:06.064Z,5788
2016-10-16T13:48:06.114Z,5740
2016-10-16T13:49:04.468Z,5704
2016-10-16T13:50:03.983Z,5668
2016-10-16T13:51:05.138Z,5632
2016-10-16T13:52:05.651Z,5608